createdAt,value
2022-09-10T00:02:15.991Z,99992.50
2022-09-10T00:04:42.985Z,99995.13
2022-09-10T00:07:09.998Z,99984.66
2022-09-10T00:09:36.879Z,99978.47
2022-09-10T00:12:04.138Z,99974.06
2022-09-10T00:14:31.110Z,99967.09
2022-09-10T00:16:58.020Z,99967.13
2022-09-10T00:19:25.178Z,99961.88
2022-09-10T00:21:52.255Z,99963.66
2022-09-10T00:24:19.261Z,99958.41
2022-09-10T00:26:46.582Z,99967.97
2022-09-10T00:29:15.970Z,99960.19
2022-09-10T00:31:43.608Z,99966.31
2022-09-10T00:34:12.288Z,99963.72
2022-09-10T00:36:41.219Z,99958.50
2022-09-10T00:39:11.162Z,99960.34
2022-09-10T00:41:40.851Z,99954.28
2022-09-10T00:44:39.999Z,99949.88
2022-09-10T00:47:29.421Z,99951.66
2022-09-10T00:50:20.063Z,99953.47
2022-09-10T00:52:47.642Z,99947.34
2022-09-10T00:55:15.927Z,99943.84
2022-09-10T00:57:43.465Z,99944.72
2022-09-10T01:00:13.041Z,99941.28
2022-09-10T01:02:41.843Z,99941.34
2022-09-10T01:05:10.678Z,99944.88
2022-09-10T01:07:38.258Z,99941.44
2022-09-10T01:10:13.091Z,99938.84
2022-09-10T01:13:01.908Z,99938.03
2022-09-10T01:15:40.386Z,99944.13
2022-09-10T01:18:46.889Z,99942.38
2022-09-10T01:21:23.558Z,99943.19
2022-09-10T01:23:58.199Z,99944.09
2022-09-10T01:26:34.880Z,99947.59
2022-09-10T01:29:39.150Z,99944.97
2022-09-10T01:32:13.115Z,99946.78
2022-09-10T01:34:58.750Z,99949.50
2022-09-10T01:37:29.806Z,99935.56
2022-09-10T01:39:58.199Z,99933.00
2022-09-10T01:42:27.729Z,99931.25
2022-09-10T01:44:57.993Z,99921.69
2022-09-10T01:47:38.763Z,99919.13
2022-09-10T01:50:30.177Z,99918.25
2022-09-10T01:53:04.922Z,99921.72
2022-09-10T01:55:41.911Z,99920.91
2022-09-10T01:58:33.664Z,99919.16
2022-09-10T02:01:28.924Z,99918.34
2022-09-10T02:04:00.317Z,99914.81
2022-09-10T02:06:29.857Z,99909.56
2022-09-10T02:08:59.909Z,99921.72
2022-09-10T02:11:26.982Z,99907.66
2022-09-10T02:13:55.233Z,99907.66
2022-09-10T02:16:35.374Z,99915.50
2022-09-10T02:19:03.429Z,99897.25
2022-09-10T02:21:32.240Z,99902.56
2022-09-10T02:24:06.139Z,99906.09
2022-09-10T02:26:35.032Z,99908.56
2022-09-10T02:29:02.419Z,99908.56
2022-09-10T02:31:30.090Z,99911.19
2022-09-10T02:33:57.042Z,99909.50
2022-09-10T02:36:26.899Z,99912.19
2022-09-10T02:38:58.770Z,99900.00
2022-09-10T02:41:28.277Z,99908.75
2022-09-10T02:43:55.689Z,99908.75
2022-09-10T02:46:22.739Z,99908.78
2022-09-10T02:48:49.995Z,99909.69
2022-09-10T02:51:16.947Z,99906.22
2022-09-10T02:53:44.476Z,99896.63
2022-09-10T02:56:13.735Z,99896.63
2022-09-10T02:58:42.630Z,99898.38
2022-09-10T03:01:15.649Z,99898.34
2022-09-10T03:03:55.153Z,99898.41
2022-09-10T03:06:23.371Z,99893.09
2022-09-10T03:08:51.860Z,99887.84
2022-09-10T03:11:18.939Z,99885.22
2022-09-10T03:13:46.401Z,99885.28
2022-09-10T03:16:14.215Z,99884.38
2022-09-10T03:18:41.873Z,99884.34
2022-09-10T03:21:20.262Z,99889.59
2022-09-10T03:23:49.570Z,99887.84
2022-09-10T03:26:22.913Z,99887.88
2022-09-10T03:28:50.227Z,99888.75
2022-09-10T03:31:20.028Z,99885.22
2022-09-10T03:33:49.318Z,99874.78
2022-09-10T03:36:18.176Z,99882.66
2022-09-10T03:38:47.168Z,99885.22
2022-09-10T03:41:14.469Z,99887.84
2022-09-10T03:43:41.561Z,99879.13
2022-09-10T03:46:12.180Z,99880.00
2022-09-10T03:48:43.762Z,99891.34
2022-09-10T03:51:11.549Z,99893.03
2022-09-10T03:53:39.519Z,99889.59
2022-09-10T03:56:08.692Z,99892.16
2022-09-10T03:58:36.022Z,99883.47
2022-09-10T04:01:04.490Z,99892.16
2022-09-10T04:03:35.125Z,99886.88
2022-09-10T04:06:02.162Z,99879.09
2022-09-10T04:08:29.153Z,99880.88
2022-09-10T04:11:01.929Z,99886.97
2022-09-10T04:13:29.181Z,99888.72
2022-09-10T04:15:56.399Z,99887.03
2022-09-10T04:18:24.029Z,99889.69
2022-09-10T04:20:51.378Z,99886.22
2022-09-10T04:23:18.271Z,99880.13
2022-09-10T04:25:46.707Z,99883.59
2022-09-10T04:28:13.789Z,99889.72
2022-09-10T04:30:40.900Z,99883.50
2022-09-10T04:33:09.925Z,99881.75
2022-09-10T04:35:36.924Z,99883.50
2022-09-10T04:38:07.238Z,99881.72
2022-09-10T04:40:38.488Z,99889.41
2022-09-10T04:43:05.828Z,99873.72
2022-09-10T04:45:37.216Z,99875.53
2022-09-10T04:48:07.267Z,99871.19
2022-09-10T04:50:35.921Z,99878.16
2022-09-10T04:53:28.959Z,99880.75
2022-09-10T04:55:57.885Z,99872.91
2022-09-10T04:58:24.821Z,99876.38
2022-09-10T05:00:52.207Z,99879.00
2022-09-10T05:03:20.222Z,99875.53
2022-09-10T05:05:48.122Z,99872.06
2022-09-10T05:08:15.338Z,99871.16
2022-09-10T05:10:49.401Z,99866.78
2022-09-10T05:13:16.934Z,99867.59
2022-09-10T05:15:46.154Z,99861.50
2022-09-10T05:18:16.794Z,99864.13
2022-09-10T05:20:47.436Z,99865.84
2022-09-10T05:23:14.510Z,99871.91
2022-09-10T05:25:44.397Z,99864.06
2022-09-10T05:28:11.561Z,99873.63
2022-09-10T05:30:38.658Z,99870.09
2022-09-10T05:33:05.989Z,99876.97
2022-09-10T05:35:34.768Z,99883.03
2022-09-10T05:38:02.123Z,99881.19
2022-09-10T05:40:32.497Z,99871.69
2022-09-10T05:43:00.301Z,99880.34
2022-09-10T05:45:27.555Z,99886.41
2022-09-10T05:47:57.430Z,99886.47
2022-09-10T05:50:24.695Z,99888.25
2022-09-10T05:52:53.225Z,99889.13
2022-09-10T05:55:20.984Z,99889.13
2022-09-10T05:57:49.347Z,99891.78
2022-09-10T06:00:19.439Z,99890.88
2022-09-10T06:02:57.487Z,99901.28
2022-09-10T06:05:29.299Z,99899.59
2022-09-10T06:07:57.109Z,99893.44
2022-09-10T06:10:24.079Z,99897.81
2022-09-10T06:12:52.836Z,99903.81
2022-09-10T06:15:21.308Z,99901.25
2022-09-10T06:17:56.650Z,99901.22
2022-09-10T06:20:24.620Z,99903.81
2022-09-10T06:22:52.396Z,99897.59
2022-09-10T06:25:19.351Z,99899.31
2022-09-10T06:27:47.743Z,99894.81
2022-09-10T06:30:16.750Z,99898.25
2022-09-10T06:32:47.337Z,99897.34
2022-09-10T06:35:14.975Z,99904.25
2022-09-10T06:37:43.376Z,99907.66
2022-09-10T06:40:12.206Z,99903.28
2022-09-10T06:42:41.059Z,99898.00
2022-09-10T06:45:13.945Z,99897.91
2022-09-10T06:48:37.756Z,99892.63
2022-09-10T06:50:55.828Z,99896.94
2022-09-10T06:53:28.867Z,99901.31
2022-09-10T06:55:56.589Z,99896.91
2022-09-10T06:58:24.980Z,99890.72
2022-09-10T07:00:52.836Z,99902.88
2022-09-10T07:03:22.267Z,99896.78
2022-09-10T07:05:50.816Z,99901.94
2022-09-10T07:08:18.277Z,99899.34
2022-09-10T07:10:50.501Z,99900.00
2022-09-10T07:13:17.566Z,99891.13
2022-09-10T07:15:46.695Z,99898.88
2022-09-10T07:18:15.763Z,99895.28
2022-09-10T07:20:45.019Z,99898.66
2022-09-10T07:23:14.206Z,99903.72
2022-09-10T07:25:42.106Z,99903.63
2022-09-10T07:28:18.208Z,99895.59
2022-09-10T07:30:47.672Z,99895.47
2022-09-10T07:33:16.548Z,99901.53
2022-09-10T07:35:45.116Z,99891.97
2022-09-10T07:38:17.526Z,99898.84
2022-09-10T07:40:48.451Z,99891.84
2022-09-10T07:43:16.706Z,99893.63
2022-09-10T07:45:44.178Z,99890.81
2022-09-10T07:48:12.045Z,99892.28
2022-09-10T07:50:39.899Z,99898.25
2022-09-10T07:53:07.411Z,99887.78
2022-09-10T07:55:35.778Z,99893.16
2022-09-10T07:58:03.497Z,99894.06
2022-09-10T08:00:31.930Z,99899.19
2022-09-10T08:03:05.516Z,99904.31
2022-09-10T08:05:33.503Z,99891.09
2022-09-10T08:08:01.799Z,99905.97
2022-09-10T08:10:29.749Z,99903.34
2022-09-10T08:12:58.130Z,99907.84
2022-09-10T08:15:25.440Z,99904.31
2022-09-10T08:17:53.305Z,99906.88
2022-09-10T08:20:25.323Z,99909.50
2022-09-10T08:22:53.339Z,99903.22
2022-09-10T08:25:21.685Z,99907.50
2022-09-10T08:27:49.104Z,99908.34
2022-09-10T08:30:16.475Z,99901.28
2022-09-10T08:32:43.927Z,99903.06
2022-09-10T08:35:14.743Z,99902.19
2022-09-10T08:37:42.210Z,99909.88
2022-09-10T08:40:12.495Z,99910.50
2022-09-10T08:42:49.434Z,99899.81
2022-09-10T08:45:32.758Z,99896.22
2022-09-10T08:48:13.286Z,99897.91
2022-09-10T08:50:52.974Z,99901.41
2022-09-10T08:53:36.730Z,99902.28
2022-09-10T08:56:11.425Z,99896.19
2022-09-10T08:58:42.822Z,99901.41
2022-09-10T09:01:15.724Z,99903.88
2022-09-10T09:03:47.659Z,99902.09
2022-09-10T09:06:41.278Z,99894.19
2022-09-10T09:09:14.838Z,99899.34
2022-09-10T09:11:49.224Z,99896.59
2022-09-10T09:14:53.629Z,99888.75
2022-09-10T09:17:42.860Z,99885.13
2022-09-10T09:20:20.250Z,99880.94
2022-09-10T09:22:53.585Z,99881.16
2022-09-10T09:26:04.201Z,99884.75
2022-09-10T09:28:47.344Z,99880.38
2022-09-10T09:31:23.700Z,99884.66
2022-09-10T09:33:56.554Z,99879.34
2022-09-10T09:36:32.788Z,99877.53
2022-09-10T09:39:03.060Z,99878.38
2022-09-10T09:41:39.400Z,99879.22
2022-09-10T09:44:19.657Z,99877.34
2022-09-10T09:46:46.742Z,99877.22
2022-09-10T09:49:17.641Z,99881.53
2022-09-10T09:51:47.501Z,99880.66
2022-09-10T09:54:51.417Z,99881.66
2022-09-10T09:57:15.614Z,99883.63
2022-09-10T09:59:42.598Z,99884.34
2022-09-10T10:02:15.640Z,99881.00
2022-09-10T10:05:13.677Z,99883.91
2022-09-10T10:07:40.610Z,99883.31
2022-09-10T10:10:12.302Z,99886.78
2022-09-10T10:12:42.596Z,99892.06
2022-09-10T10:15:36.781Z,99886.69
2022-09-10T10:18:31.982Z,99886.53
2022-09-10T10:21:37.024Z,99873.34
2022-09-10T10:24:04.272Z,99868.19
2022-09-10T10:26:33.144Z,99865.38
2022-09-10T10:29:06.401Z,99861.44
2022-09-10T10:31:37.234Z,99854.63
2022-09-10T10:34:10.476Z,99862.41
2022-09-10T10:37:02.033Z,99860.47
2022-09-10T10:39:38.742Z,99847.94
2022-09-10T10:42:34.363Z,99851.84
2022-09-10T10:45:28.997Z,99855.56
2022-09-10T10:48:10.132Z,99842.81
2022-09-10T10:50:44.751Z,99838.97
2022-09-10T10:53:48.510Z,99849.03
2022-09-10T10:56:30.293Z,99852.00
2022-09-10T10:59:23.761Z,99856.75
2022-09-10T11:01:56.466Z,99844.84
2022-09-10T11:04:29.978Z,99854.25
2022-09-10T11:07:04.692Z,99860.88
2022-09-10T11:09:44.351Z,99858.84
2022-09-10T11:12:20.352Z,99853.47
2022-09-10T11:14:53.661Z,99845.38
2022-09-10T11:17:46.576Z,99835.97
2022-09-10T11:20:34.549Z,99827.63
2022-09-10T11:23:08.091Z,99840.31
2022-09-10T11:25:53.255Z,99835.69
2022-09-10T11:28:25.952Z,99841.13
2022-09-10T11:31:02.964Z,99840.47
2022-09-10T11:33:37.593Z,99839.84
2022-09-10T11:36:43.381Z,99848.09
2022-09-10T11:39:42.125Z,99850.56
2022-09-10T11:42:46.101Z,99853.91
2022-09-10T11:45:39.810Z,99852.53
2022-09-10T11:48:40.058Z,99846.97
2022-09-10T11:51:26.915Z,99838.97
2022-09-10T11:53:54.914Z,99845.84
2022-09-10T11:56:46.652Z,99856.44
2022-09-10T11:59:25.552Z,99853.00
2022-09-10T12:02:14.429Z,99847.91
2022-09-10T12:05:06.351Z,99835.75
2022-09-10T12:07:56.867Z,99830.59
2022-09-10T12:10:55.627Z,99822.94
2022-09-10T12:13:22.794Z,99821.06
2022-09-10T12:16:00.010Z,99822.38
2022-09-10T12:18:31.224Z,99814.84
2022-09-10T12:20:59.892Z,99817.66
2022-09-10T12:23:33.534Z,99816.97
2022-09-10T12:26:05.715Z,99822.09
2022-09-10T12:28:51.255Z,99819.56
2022-09-10T12:31:20.524Z,99816.34
2022-09-10T12:33:47.578Z,99805.25
2022-09-10T12:36:35.653Z,99816.94
2022-09-10T12:39:20.713Z,99820.91
2022-09-10T12:41:47.553Z,99813.31
2022-09-10T12:44:36.455Z,99821.56
2022-09-10T12:47:15.996Z,99828.34
2022-09-10T12:49:57.335Z,99817.06
2022-09-10T12:52:42.955Z,99832.47
2022-09-10T12:55:23.070Z,99834.22
2022-09-10T12:58:05.454Z,99833.31
2022-09-10T13:01:09.585Z,99834.16
2022-09-10T13:03:37.776Z,99821.00
2022-09-10T13:06:07.239Z,99826.41
2022-09-10T13:08:45.453Z,99830.25
2022-09-10T13:11:23.274Z,99830.50
2022-09-10T13:14:12.292Z,99826.50
2022-09-10T13:16:40.971Z,99824.16
2022-09-10T13:19:13.836Z,99820.97
2022-09-10T13:21:40.803Z,99816.88
2022-09-10T13:24:34.499Z,99817.94
2022-09-10T13:27:16.812Z,99815.31
2022-09-10T13:29:46.134Z,99822.28
2022-09-10T13:32:34.888Z,99822.31
2022-09-10T13:35:04.354Z,99824.28
2022-09-10T13:37:50.483Z,99823.63
2022-09-10T13:40:39.382Z,99815.84
2022-09-10T13:43:31.272Z,99819.50
2022-09-10T13:46:15.051Z,99818.56
2022-09-10T13:48:46.756Z,99823.78
2022-09-10T13:51:31.038Z,99821.16
2022-09-10T13:54:04.114Z,99818.47
2022-09-10T13:56:32.407Z,99819.31
2022-09-10T13:59:03.585Z,99823.81
2022-09-10T14:01:50.661Z,99816.91
2022-09-10T14:04:39.098Z,99814.28
2022-09-10T14:07:20.258Z,99813.56
2022-09-10T14:09:56.866Z,99817.22
2022-09-10T14:12:28.208Z,99813.09
2022-09-10T14:14:59.368Z,99823.63
2022-09-10T14:17:31.572Z,99820.13
2022-09-10T14:20:06.044Z,99815.63
2022-09-10T14:22:33.428Z,99822.53
2022-09-10T14:25:02.725Z,99819.09
2022-09-10T14:27:32.588Z,99821.88
2022-09-10T14:30:21.224Z,99819.41
2022-09-10T14:32:48.453Z,99820.25
2022-09-10T14:35:44.292Z,99820.31
2022-09-10T14:38:31.170Z,99817.56
2022-09-10T14:41:11.082Z,99808.84
2022-09-10T14:43:40.698Z,99807.88
2022-09-10T14:46:10.306Z,99804.41
2022-09-10T14:48:41.210Z,99803.56
2022-09-10T14:51:12.386Z,99802.63
2022-09-10T14:53:40.953Z,99811.22
2022-09-10T14:56:39.748Z,99794.59
2022-09-10T14:59:15.367Z,99804.22
2022-09-10T15:01:48.241Z,99792.03
2022-09-10T15:04:18.480Z,99786.75
2022-09-10T15:06:46.153Z,99787.63
2022-09-10T15:09:13.991Z,99790.31
2022-09-10T15:11:50.892Z,99793.00
2022-09-10T15:14:18.683Z,99786.88
2022-09-10T15:16:46.982Z,99796.47
2022-09-10T15:19:14.463Z,99786.75
2022-09-10T15:21:41.419Z,99791.84
2022-09-10T15:24:15.914Z,99787.50
2022-09-10T15:26:43.364Z,99790.06
2022-09-10T15:29:11.132Z,99791.91
2022-09-10T15:31:38.872Z,99800.69
2022-09-10T15:34:07.648Z,99795.50
2022-09-10T15:36:37.083Z,99796.34
2022-09-10T15:39:05.485Z,99788.44
2022-09-10T15:41:32.385Z,99786.59
2022-09-10T15:43:59.499Z,99785.72
2022-09-10T15:46:26.505Z,99790.13
2022-09-10T15:48:55.631Z,99783.25
2022-09-10T15:51:24.034Z,99781.53
2022-09-10T15:53:52.706Z,99782.50
2022-09-10T15:56:21.308Z,99775.56
2022-09-10T15:58:55.157Z,99775.56
2022-09-10T16:01:25.319Z,99772.94
2022-09-10T16:03:55.962Z,99770.31
2022-09-10T16:06:25.813Z,99765.06
2022-09-10T16:08:57.500Z,99772.00
2022-09-10T16:11:25.462Z,99779.03
2022-09-10T16:13:52.815Z,99772.00
2022-09-10T16:16:22.506Z,99772.94
2022-09-10T16:18:51.723Z,99778.16
2022-09-10T16:21:22.476Z,99774.63
2022-09-10T16:23:51.894Z,99768.47
2022-09-10T16:26:24.336Z,99771.03
2022-09-10T16:28:52.807Z,99769.28
2022-09-10T16:31:23.052Z,99774.53
2022-09-10T16:33:54.663Z,99766.75
2022-09-10T16:36:22.357Z,99769.28
2022-09-10T16:38:53.569Z,99772.94
2022-09-10T16:41:21.039Z,99772.28
2022-09-10T16:43:47.959Z,99776.94
2022-09-10T16:46:15.039Z,99781.25
2022-09-10T16:48:43.026Z,99776.91
2022-09-10T16:51:15.865Z,99777.97
2022-09-10T16:53:44.402Z,99775.38
2022-09-10T16:56:16.449Z,99772.84
2022-09-10T16:58:47.717Z,99775.47
2022-09-10T17:01:15.881Z,99772.94
2022-09-10T17:03:50.757Z,99779.44
2022-09-10T17:06:24.499Z,99778.97
2022-09-10T17:08:56.228Z,99782.75
2022-09-10T17:11:26.114Z,99777.41
2022-09-10T17:13:54.303Z,99778.31
2022-09-10T17:16:21.274Z,99778.13
2022-09-10T17:18:53.051Z,99774.72
2022-09-10T17:21:19.955Z,99778.44
2022-09-10T17:23:46.955Z,99784.44
2022-09-10T17:26:13.882Z,99784.34
2022-09-10T17:28:41.453Z,99783.44
2022-09-10T17:31:08.691Z,99789.56
2022-09-10T17:33:35.675Z,99775.69
2022-09-10T17:36:04.149Z,99785.38
2022-09-10T17:38:33.836Z,99778.31
2022-09-10T17:41:02.796Z,99781.72
2022-09-10T17:43:34.210Z,99785.19
2022-09-10T17:46:09.462Z,99784.28
2022-09-10T17:48:38.018Z,99792.19
2022-09-10T17:51:06.269Z,99785.19
2022-09-10T17:53:34.149Z,99786.88
2022-09-10T17:56:05.534Z,99784.22
2022-09-10T17:58:33.382Z,99777.19
2022-09-10T18:01:01.944Z,99783.50
2022-09-10T18:03:29.301Z,99782.69
2022-09-10T18:05:57.139Z,99781.66
2022-09-10T18:08:24.208Z,99784.03
2022-09-10T18:11:05.777Z,99775.00
2022-09-10T18:13:36.445Z,99780.06
2022-09-10T18:16:11.742Z,99783.59
2022-09-10T18:18:39.513Z,99785.38
2022-09-10T18:21:27.284Z,99783.41
2022-09-10T18:24:00.548Z,99780.13
2022-09-10T18:26:32.566Z,99782.13
2022-09-10T18:29:00.487Z,99783.03
2022-09-10T18:31:32.583Z,99777.03
2022-09-10T18:34:00.921Z,99775.59
2022-09-10T18:36:32.871Z,99779.94
2022-09-10T18:39:06.432Z,99781.75
2022-09-10T18:41:38.595Z,99779.06
2022-09-10T18:44:08.922Z,99778.22
2022-09-10T18:46:36.506Z,99776.44
2022-09-10T18:49:05.445Z,99775.66
2022-09-10T18:51:32.735Z,99777.53
2022-09-10T18:54:01.429Z,99769.88
2022-09-10T18:56:30.553Z,99774.31
2022-09-10T18:59:01.350Z,99780.66
2022-09-10T19:01:29.807Z,99784.22
2022-09-10T19:03:59.726Z,99783.53
2022-09-10T19:06:29.205Z,99780.78
2022-09-10T19:08:59.878Z,99775.56
2022-09-10T19:11:33.092Z,99784.06
2022-09-10T19:14:01.877Z,99784.19
2022-09-10T19:16:30.423Z,99780.66
2022-09-10T19:19:02.939Z,99781.53
2022-09-10T19:21:32.870Z,99781.59
2022-09-10T19:24:00.955Z,99783.47
2022-09-10T19:26:30.844Z,99784.44
2022-09-10T19:28:59.364Z,99776.53
2022-09-10T19:31:28.316Z,99778.19
2022-09-10T19:34:06.619Z,99775.69
2022-09-10T19:36:35.734Z,99778.28
2022-09-10T19:39:09.070Z,99769.66
2022-09-10T19:41:39.785Z,99772.09
2022-09-10T19:44:08.934Z,99775.44
2022-09-10T19:46:37.428Z,99767.47
2022-09-10T19:49:07.014Z,99770.25
2022-09-10T19:51:36.995Z,99777.19
2022-09-10T19:54:04.654Z,99771.09
2022-09-10T19:56:35.016Z,99773.75
2022-09-10T19:59:08.840Z,99773.09
2022-09-10T20:01:43.776Z,99773.09
2022-09-10T20:04:11.877Z,99773.84
2022-09-10T20:06:39.484Z,99779.03
2022-09-10T20:09:07.630Z,99777.22
2022-09-10T20:11:35.368Z,99778.84
2022-09-10T20:14:16.142Z,99773.66
2022-09-10T20:16:45.295Z,99767.41
2022-09-10T20:19:14.561Z,99765.75
2022-09-10T20:21:42.342Z,99768.38
2022-09-10T20:24:09.879Z,99770.16
2022-09-10T20:26:38.341Z,99766.78
2022-09-10T20:29:12.475Z,99769.38
2022-09-10T20:31:41.388Z,99763.13
2022-09-10T20:34:14.281Z,99771.88
2022-09-10T20:36:45.225Z,99765.81
2022-09-10T20:39:17.227Z,99764.25
2022-09-10T20:41:45.259Z,99761.75
2022-09-10T20:44:14.050Z,99754.84
2022-09-10T20:46:41.965Z,99760.03
2022-09-10T20:49:11.095Z,99757.47
2022-09-10T20:51:40.514Z,99754.78
2022-09-10T20:54:10.903Z,99752.19
2022-09-10T20:56:38.158Z,99757.34
2022-09-10T20:59:05.333Z,99747.63
2022-09-10T21:01:33.162Z,99757.25
2022-09-10T21:04:01.834Z,99754.53
2022-09-10T21:06:31.454Z,99759.03
2022-09-10T21:09:00.736Z,99759.00
2022-09-10T21:11:30.827Z,99752.97
2022-09-10T21:14:00.738Z,99751.31
2022-09-10T21:16:29.777Z,99752.19
2022-09-10T21:19:01.441Z,99754.00
2022-09-10T21:21:30.355Z,99755.66
2022-09-10T21:23:59.887Z,99762.47
2022-09-10T21:26:32.379Z,99760.03
2022-09-10T21:29:02.336Z,99756.00
2022-09-10T21:31:30.363Z,99758.53
2022-09-10T21:34:02.788Z,99753.41
2022-09-10T21:36:32.368Z,99762.13
2022-09-10T21:39:01.570Z,99757.97
2022-09-10T21:41:39.969Z,99746.81
2022-09-10T21:44:20.079Z,99754.75
2022-09-10T21:46:47.567Z,99751.03
2022-09-10T21:49:14.789Z,99747.59
2022-09-10T21:51:42.487Z,99751.94
2022-09-10T21:54:18.779Z,99748.66
2022-09-10T21:56:46.083Z,99750.16
2022-09-10T21:59:14.597Z,99750.97
2022-09-10T22:01:43.995Z,99751.81
2022-09-10T22:04:11.528Z,99748.34
2022-09-10T22:06:38.979Z,99751.03
2022-09-10T22:09:08.290Z,99746.69
2022-09-10T22:11:45.836Z,99746.59
2022-09-10T22:14:18.294Z,99744.84
2022-09-10T22:16:45.883Z,99741.47
2022-09-10T22:19:15.646Z,99744.94
2022-09-10T22:21:42.630Z,99740.50
2022-09-10T22:24:11.404Z,99737.84
2022-09-10T22:26:43.355Z,99745.78
2022-09-10T22:29:10.925Z,99743.06
2022-09-10T22:31:38.200Z,99741.31
2022-09-10T22:34:11.387Z,99734.41
2022-09-10T22:36:39.702Z,99735.38
2022-09-10T22:39:08.957Z,99731.81
2022-09-10T22:41:36.573Z,99734.53
2022-09-10T22:44:03.613Z,99735.44
2022-09-10T22:46:31.158Z,99727.59
2022-09-10T22:48:58.246Z,99730.34
2022-09-10T22:51:27.907Z,99719.16
2022-09-10T22:53:55.790Z,99726.25
2022-09-10T22:56:24.816Z,99728.81
2022-09-10T22:58:52.803Z,99727.16
2022-09-10T23:01:22.762Z,99725.44
2022-09-10T23:03:50.368Z,99726.19
2022-09-10T23:06:19.846Z,99732.19
2022-09-10T23:08:50.356Z,99732.06
2022-09-10T23:11:27.236Z,99728.56
2022-09-10T23:13:59.663Z,99727.59
2022-09-10T23:16:29.094Z,99726.75
2022-09-10T23:18:57.637Z,99729.28
2022-09-10T23:21:26.804Z,99724.22
2022-09-10T23:23:56.447Z,99724.13
2022-09-10T23:26:24.385Z,99728.44
2022-09-10T23:28:51.770Z,99718.09
2022-09-10T23:31:20.923Z,99727.91
2022-09-10T23:33:54.517Z,99727.88
2022-09-10T23:36:21.966Z,99724.41
2022-09-10T23:38:49.087Z,99726.16
2022-09-10T23:41:16.577Z,99726.31
2022-09-10T23:43:44.574Z,99726.50
2022-09-10T23:46:12.493Z,99722.09
2022-09-10T23:48:40.069Z,99730.75
2022-09-10T23:51:07.137Z,99727.09
2022-09-10T23:53:34.138Z,99723.47
2022-09-10T23:56:02.949Z,99727.75
2022-09-10T23:58:30.116Z,99724.22
